Time;durP1;ratioP1;P1;durP2;ratioP2;P2;SDS_P1;SDS_P2;PMS_P1;PMS_P2;Temp;Humidity;BMP_temperature;BMP_pressure;BME280_temperature;BME280_humidity;BME280_pressure;Samples;Min_cycle;Max_cycle;Signal;HPM_P1;HPM_P2
2023/07/25 00:00:35;;;;;;;7.70;3.00;;;13.90;99.90;;;14.46;100.00;99504.34;4987541;28;20038;-80
2023/07/25 00:03:01;;;;;;;9.30;2.92;;;13.90;99.90;;;14.48;100.00;99513.13;4986892;28;20470;-81
2023/07/25 00:05:27;;;;;;;11.88;3.05;;;13.90;99.90;;;14.45;100.00;99513.66;4990749;28;20494;-81
2023/07/25 00:07:52;;;;;;;5.80;2.92;;;13.90;99.90;;;14.41;100.00;99507.06;4989946;28;20046;-80
2023/07/25 00:10:19;;;;;;;6.97;3.00;;;13.80;99.90;;;14.27;100.00;99503.19;4988515;28;20042;-81
2023/07/25 00:12:45;;;;;;;8.25;3.30;;;13.70;99.90;;;14.22;100.00;99512.22;4993293;28;20449;-80
2023/07/25 00:15:11;;;;;;;6.63;3.25;;;13.70;99.90;;;14.12;100.00;99499.31;4992157;28;20042;-81
2023/07/25 00:17:36;;;;;;;7.63;3.05;;;13.50;99.90;;;14.07;100.00;99510.25;4992401;28;20490;-81
2023/07/25 00:20:03;;;;;;;9.50;3.33;;;13.50;99.90;;;13.83;100.00;99474.22;4991633;28;20038;-81
2023/07/25 00:22:28;;;;;;;8.82;3.08;;;13.40;99.90;;;13.92;100.00;99489.06;4991831;28;20058;-80
2023/07/25 00:24:54;;;;;;;5.65;3.05;;;13.40;99.90;;;13.86;100.00;99482.75;4991098;28;20042;-81
2023/07/25 00:27:20;;;;;;;10.23;3.40;;;13.30;99.90;;;13.74;100.00;99471.16;5007753;28;20054;-81
2023/07/25 00:29:47;;;;;;;12.88;3.80;;;13.30;99.90;;;13.69;100.00;99465.66;4991290;28;20077;-81
2023/07/25 00:32:12;;;;;;;7.13;3.42;;;13.20;99.90;;;13.69;100.00;99466.50;4992628;28;20195;-81
2023/07/25 00:34:38;;;;;;;10.27;3.78;;;13.10;99.90;;;13.66;100.00;99462.34;4992675;28;20486;-82
2023/07/25 00:37:04;;;;;;;12.13;4.00;;;13.10;99.90;;;13.65;100.00;99457.13;4992041;28;20078;-80
2023/07/25 00:39:30;;;;;;;8.75;4.30;;;13.10;99.90;;;13.66;100.00;99456.06;4991017;28;20089;-81
2023/07/25 00:41:56;;;;;;;12.30;4.38;;;13.10;99.90;;;13.60;100.00;99454.38;5007772;28;20026;-81
2023/07/25 00:44:22;;;;;;;12.60;4.70;;;13.00;99.90;;;13.56;100.00;99451.34;4991452;28;20049;-81
2023/07/25 00:46:47;;;;;;;12.63;4.40;;;12.90;99.90;;;13.54;100.00;99459.03;4990590;28;20042;-80
2023/07/25 00:49:13;;;;;;;14.30;5.05;;;12.90;99.90;;;13.49;100.00;99442.53;4991777;28;20082;-81
2023/07/25 00:51:39;;;;;;;11.23;5.38;;;12.90;99.90;;;13.48;100.00;99438.97;4992070;28;20049;-81
2023/07/25 00:54:06;;;;;;;10.80;4.97;;;12.90;99.90;;;13.51;100.00;99438.44;4977509;28;20486;-80
2023/07/25 00:56:31;;;;;;;13.68;5.40;;;12.90;99.90;;;13.49;100.00;99431.56;4986885;28;20124;-81
2023/07/25 00:58:57;;;;;;;8.48;4.97;;;12.90;99.90;;;13.46;100.00;99426.63;4991084;28;20117;-81
2023/07/25 01:01:24;;;;;;;9.80;5.35;;;12.90;99.90;;;13.48;100.00;99430.75;4990420;28;20034;-81
2023/07/25 01:03:52;;;;;;;13.52;5.43;;;12.90;99.90;;;13.47;100.00;99433.75;4990937;28;20030;-80
2023/07/25 01:06:18;;;;;;;12.65;5.65;;;12.90;99.90;;;13.50;100.00;99416.78;4991002;28;20054;-81
2023/07/25 01:08:53;;;;;;;10.48;6.60;;;13.00;99.90;;;13.47;100.00;99411.84;4990031;28;20052;-80
2023/07/25 01:11:21;;;;;;;12.05;6.00;;;13.00;99.90;;;13.52;100.00;99420.06;4990797;28;20542;-81
2023/07/25 01:13:48;;;;;;;17.27;6.03;;;13.00;99.90;;;13.53;100.00;99421.75;5004226;28;20463;-80
2023/07/25 01:16:35;;;;;;;16.05;5.38;;;13.00;99.90;;;13.55;100.00;99414.09;4997843;28;20030;-81
2023/07/25 01:19:02;;;;;;;14.43;5.45;;;13.10;99.90;;;13.52;100.00;99426.41;4988918;28;20399;-80
2023/07/25 01:21:28;;;;;;;13.90;5.72;;;13.10;99.90;;;13.57;100.00;99420.13;4990826;28;20049;-80
2023/07/25 01:24:02;;;;;;;13.32;5.95;;;13.10;99.90;;;13.61;100.00;99423.97;4986413;28;20064;-81
2023/07/25 01:26:28;;;;;;;11.52;5.38;;;13.10;99.90;;;13.69;100.00;99436.34;4985311;28;20038;-80
2023/07/25 01:28:53;;;;;;;11.63;5.55;;;13.20;99.90;;;13.75;100.00;99445.41;4985666;28;20034;-80
2023/07/25 01:31:19;;;;;;;9.90;5.18;;;13.20;99.90;;;13.75;100.00;99450.88;4984516;28;20403;-81
2023/07/25 01:33:45;;;;;;;10.27;4.90;;;13.20;99.90;;;13.77;100.00;99465.13;4981300;28;20034;-81
2023/07/25 01:36:11;;;;;;;11.18;5.07;;;13.20;99.90;;;13.75;100.00;99470.06;4979010;28;20033;-81
2023/07/25 01:38:37;;;;;;;13.40;5.05;;;13.20;99.90;;;13.73;100.00;99472.25;4986172;28;20402;-80
2023/07/25 01:41:02;;;;;;;12.43;5.10;;;13.30;99.90;;;13.82;100.00;99481.63;4982811;28;20041;-81
2023/07/25 01:43:28;;;;;;;12.65;4.80;;;13.30;99.90;;;13.87;100.00;99492.63;4987375;28;20034;-80
2023/07/25 01:45:54;;;;;;;10.55;4.75;;;13.30;99.90;;;13.96;100.00;99495.69;4980343;28;20049;-81
2023/07/25 01:48:19;;;;;;;11.88;4.70;;;13.30;99.90;;;13.89;100.00;99495.06;4990432;28;20042;-80
2023/07/25 01:50:45;;;;;;;10.40;4.30;;;13.30;99.90;;;13.86;100.00;99501.94;4990005;28;20034;-81
2023/07/25 01:53:11;;;;;;;10.05;4.53;;;13.30;99.90;;;13.91;100.00;99510.19;5012891;28;20398;-81
2023/07/25 01:55:37;;;;;;;8.88;4.95;;;13.30;99.90;;;13.87;100.00;99517.28;4990695;28;20042;-82
2023/07/25 01:58:02;;;;;;;9.65;4.40;;;13.40;99.90;;;13.94;100.00;99520.59;4974263;28;20475;-81
2023/07/25 02:00:28;;;;;;;13.02;4.50;;;13.40;99.90;;;13.99;100.00;99527.19;5000620;28;20048;-81
2023/07/25 02:02:54;;;;;;;8.68;4.35;;;13.40;99.90;;;13.99;100.00;99518.97;4990392;28;20037;-81
2023/07/25 02:05:20;;;;;;;12.95;4.25;;;13.40;99.90;;;14.00;100.00;99537.06;5005578;28;20065;-81
2023/07/25 02:07:46;;;;;;;12.65;4.43;;;13.40;99.90;;;14.08;100.00;99536.59;4973963;28;20043;-81
2023/07/25 02:10:12;;;;;;;16.25;4.47;;;13.40;99.90;;;13.99;100.00;99527.19;4992015;28;20391;-81
2023/07/25 02:12:38;;;;;;;13.07;4.03;;;13.40;99.90;;;13.97;100.00;99532.13;4991229;28;20033;-81
2023/07/25 02:15:05;;;;;;;12.35;3.92;;;13.50;99.90;;;14.03;100.00;99542.84;4997349;28;20034;-83
2023/07/25 02:17:30;;;;;;;10.48;4.28;;;13.50;99.90;;;14.02;100.00;99543.94;4994738;28;20042;-82
2023/07/25 02:19:56;;;;;;;10.35;4.07;;;13.50;99.90;;;13.99;100.00;99540.91;4985477;28;20045;-83
2023/07/25 02:22:22;;;;;;;9.57;4.07;;;13.50;99.90;;;14.06;100.00;99547.81;5004048;28;20054;-81
2023/07/25 02:24:48;;;;;;;9.48;4.03;;;13.60;99.90;;;13.97;100.00;99549.41;4981287;28;20038;-82
2023/07/25 02:27:14;;;;;;;11.93;4.22;;;13.60;99.90;;;14.00;100.00;99548.03;4987273;28;20529;-82
2023/07/25 02:29:39;;;;;;;13.35;4.20;;;13.60;99.90;;;14.07;100.00;99552.19;4989852;28;20034;-82
2023/07/25 02:32:05;;;;;;;9.63;3.72;;;13.60;99.90;;;14.10;100.00;99559.88;4987711;28;20030;-81
2023/07/25 02:34:31;;;;;;;11.23;4.40;;;13.70;99.90;;;14.13;100.00;99561.28;4983576;28;20590;-82
2023/07/25 02:36:57;;;;;;;14.35;4.75;;;13.60;99.90;;;14.13;100.00;99550.31;4987564;28;20034;-82
2023/07/25 02:39:24;;;;;;;14.52;4.47;;;13.70;99.90;;;13.91;100.00;99543.06;4977122;28;20034;-81
2023/07/25 02:41:49;;;;;;;14.18;4.75;;;13.60;99.90;;;14.06;100.00;99545.06;4994425;28;20030;-81
2023/07/25 02:44:15;;;;;;;14.02;4.35;;;13.60;99.90;;;14.14;100.00;99548.38;4978404;28;20446;-82
2023/07/25 02:46:41;;;;;;;11.85;4.75;;;13.60;99.90;;;14.21;100.00;99563.50;4984996;28;20047;-82
2023/07/25 02:49:07;;;;;;;14.18;4.80;;;13.60;99.90;;;14.19;100.00;99562.94;4984041;28;20035;-81
2023/07/25 02:51:32;;;;;;;10.93;4.95;;;13.60;99.90;;;14.21;100.00;99569.00;4977932;28;20034;-83
2023/07/25 02:53:58;;;;;;;10.75;4.13;;;13.60;99.90;;;14.23;100.00;99569.53;4984079;28;20034;-81
2023/07/25 02:56:26;;;;;;;10.68;4.43;;;13.70;99.90;;;14.16;100.00;99565.38;4987488;28;20034;-81
2023/07/25 02:58:52;;;;;;;15.88;5.40;;;13.70;99.90;;;14.26;100.00;99561.88;4983524;28;20058;-81
2023/07/25 03:01:18;;;;;;;16.25;4.30;;;13.70;99.90;;;14.20;100.00;99563.78;4990384;28;20034;-82
2023/07/25 03:03:43;;;;;;;8.32;4.03;;;13.70;99.90;;;14.27;100.00;99561.63;4978899;28;20034;-82
2023/07/25 03:06:10;;;;;;;8.30;4.22;;;13.70;99.90;;;14.31;100.00;99561.88;4987110;28;20514;-82
2023/07/25 03:08:35;;;;;;;10.57;4.32;;;13.70;99.90;;;14.24;100.00;99546.50;4963768;28;20035;-83
2023/07/25 03:11:01;;;;;;;14.68;4.63;;;13.70;99.90;;;14.27;100.00;99541.56;4981278;28;20041;-83
2023/07/25 03:13:27;;;;;;;14.07;4.53;;;13.70;99.90;;;14.18;100.00;99533.88;5004470;28;20105;-82
2023/07/25 03:15:53;;;;;;;9.88;4.60;;;13.70;99.90;;;14.18;100.00;99536.63;4989456;28;20445;-82
2023/07/25 03:18:18;;;;;;;12.32;4.90;;;13.70;99.90;;;14.02;100.00;99527.50;4989650;28;20558;-82
2023/07/25 03:20:44;;;;;;;10.85;5.20;;;13.80;99.90;;;14.23;100.00;99539.38;5005273;28;20050;-81
2023/07/25 03:23:10;;;;;;;12.13;5.05;;;13.70;99.90;;;14.26;100.00;99535.28;4989495;28;20034;-83
2023/07/25 03:25:35;;;;;;;14.27;4.82;;;13.70;99.90;;;14.23;100.00;99533.88;4973694;28;20404;-82
2023/07/25 03:28:01;;;;;;;14.65;4.97;;;13.70;99.90;;;14.32;100.00;99536.94;4989090;28;20080;-82
2023/07/25 03:30:27;;;;;;;11.88;5.20;;;13.70;99.90;;;14.32;100.00;99542.44;4981680;28;20706;-82
2023/07/25 03:32:53;;;;;;;12.68;4.72;;;13.70;99.90;;;14.33;100.00;99540.53;4983859;28;20054;-82
2023/07/25 03:35:20;;;;;;;12.18;5.03;;;13.60;99.90;;;14.36;100.00;99537.25;4980164;28;20050;-82
2023/07/25 03:37:46;;;;;;;17.10;4.88;;;13.60;99.90;;;14.37;100.00;99552.59;4988701;28;20081;-81
2023/07/25 03:40:12;;;;;;;13.30;4.50;;;13.60;99.90;;;14.28;100.00;99549.56;4992344;28;20066;-82
2023/07/25 03:42:37;;;;;;;13.68;4.80;;;13.60;99.90;;;14.28;100.00;99546.81;4987733;28;20077;-82
2023/07/25 03:45:03;;;;;;;10.27;5.13;;;13.60;99.90;;;14.24;100.00;99535.53;4992728;28;20030;-81
2023/07/25 03:47:29;;;;;;;10.15;4.90;;;13.60;99.90;;;14.21;100.00;99521.56;4991197;28;20129;-82
2023/07/25 03:49:55;;;;;;;12.90;5.30;;;13.60;99.90;;;14.22;100.00;99526.75;4992662;28;20364;-81
2023/07/25 03:52:21;;;;;;;11.88;5.22;;;13.50;99.90;;;14.22;100.00;99526.75;4993030;28;20049;-82
2023/07/25 03:54:46;;;;;;;12.52;5.13;;;13.50;99.90;;;14.22;100.00;99528.69;4986065;28;20038;-80
2023/07/25 03:57:12;;;;;;;11.80;5.95;;;13.50;99.90;;;14.23;100.00;99531.16;4996905;28;20077;-82
2023/07/25 03:59:38;;;;;;;18.38;5.63;;;13.50;99.90;;;14.21;100.00;99535.28;4991245;28;20482;-82
2023/07/25 04:02:04;;;;;;;15.23;5.32;;;13.50;99.90;;;14.21;100.00;99532.53;4993191;28;20038;-82
2023/07/25 04:04:30;;;;;;;12.57;5.00;;;13.50;99.90;;;14.22;100.00;99532.25;4976077;28;20042;-83
2023/07/25 04:06:55;;;;;;;15.48;5.50;;;13.50;99.90;;;14.17;100.00;99539.63;5007820;28;20402;-81
2023/07/25 04:09:21;;;;;;;12.63;5.90;;;13.50;99.90;;;14.18;100.00;99536.63;5006720;28;20478;-82
2023/07/25 04:11:49;;;;;;;14.05;6.38;;;13.50;99.90;;;14.21;100.00;99541.56;4993411;28;20133;-85
2023/07/25 04:14:15;;;;;;;14.23;5.55;;;13.50;99.90;;;14.22;100.00;99536.91;4992222;28;20133;-85
2023/07/25 04:16:41;;;;;;;12.85;5.10;;;13.50;99.90;;;14.26;100.00;99550.91;4992158;28;20168;-83
2023/07/25 04:19:06;;;;;;;11.32;5.65;;;13.50;99.90;;;14.27;100.00;99550.66;4992708;28;20065;-84
2023/07/25 04:21:32;;;;;;;12.70;5.70;;;13.50;99.90;;;14.23;100.00;99555.84;4982874;28;20034;-84
2023/07/25 04:23:58;;;;;;;13.73;5.88;;;13.60;99.90;;;14.12;100.00;99547.81;4981737;28;20065;-84
2023/07/25 04:26:24;;;;;;;16.88;5.65;;;13.60;99.90;;;14.21;100.00;99571.72;5004541;28;20042;-82
2023/07/25 04:28:49;;;;;;;15.07;5.53;;;13.60;99.90;;;14.22;100.00;99569.84;4991352;28;20049;-84
2023/07/25 04:31:15;;;;;;;13.02;5.03;;;13.60;99.90;;;14.35;100.00;99579.50;4988245;28;20088;-85
2023/07/25 04:33:42;;;;;;;15.07;5.88;;;13.60;99.90;;;14.37;100.00;99572.63;4997766;28;20386;-83
2023/07/25 04:36:09;;;;;;;16.20;5.80;;;13.70;99.90;;;14.34;100.00;99569.59;4991329;28;20422;-85
2023/07/25 04:38:34;;;;;;;12.68;5.55;;;13.70;99.90;;;13.84;100.00;99561.69;4978325;28;20117;-86
2023/07/25 04:41:00;;;;;;;12.80;6.10;;;13.70;99.90;;;13.79;100.00;99542.44;4985192;28;20038;-85
2023/07/25 04:43:26;;;;;;;13.43;5.57;;;13.70;99.90;;;13.80;100.00;99533.97;4979663;28;20034;-85
2023/07/25 04:45:52;;;;;;;12.60;5.75;;;13.70;99.90;;;14.33;100.00;99521.31;4992705;28;20122;-85
2023/07/25 04:48:17;;;;;;;14.18;5.68;;;13.70;99.90;;;14.31;100.00;99534.44;4979797;28;20528;-86
2023/07/25 04:50:43;;;;;;;14.18;5.63;;;13.60;99.90;;;14.23;100.00;99544.06;4992595;28;20458;-84
2023/07/25 04:53:09;;;;;;;13.73;6.13;;;13.70;99.90;;;14.37;100.00;99563.56;4989932;28;20515;-85
2023/07/25 04:55:35;;;;;;;10.93;5.75;;;13.70;99.90;;;14.30;100.00;99561.06;4989712;28;20324;-83
2023/07/25 04:58:02;;;;;;;14.02;5.85;;;13.70;99.90;;;14.40;100.00;99568.53;4981665;28;20039;-85
2023/07/25 05:00:29;;;;;;;;;;;13.80;99.90;;;14.38;100.00;99567.97;4988640;28;20105;-85
2023/07/25 05:02:54;;;;;;;12.45;5.55;;;13.90;99.90;;;14.34;100.00;99561.38;4978424;28;19918;-86
2023/07/25 05:05:20;;;;;;;11.27;5.32;;;14.00;99.90;;;14.31;100.00;99559.97;4981990;28;20045;-85
2023/07/25 05:07:46;;;;;;;14.38;5.43;;;14.00;99.90;;;14.56;100.00;99568.56;4978413;28;20060;-85
2023/07/25 05:10:12;;;;;;;15.80;5.55;;;14.00;99.90;;;14.53;100.00;99578.97;4990832;28;20538;-84
2023/07/25 05:12:37;;;;;;;10.23;5.28;;;14.10;99.90;;;14.33;100.00;99570.69;4988181;28;20391;-82
2023/07/25 05:15:05;;;;;;;13.30;5.05;;;14.10;99.90;;;14.61;100.00;99571.34;4992848;28;20049;-82
2023/07/25 05:17:32;;;;;;;13.32;5.35;;;14.20;99.90;;;14.66;100.00;99565.88;4985463;28;20102;-85
2023/07/25 05:19:58;;;;;;;12.80;5.25;;;14.20;99.90;;;14.94;100.00;99602.19;4993696;28;20041;-84
2023/07/25 05:22:23;;;;;;;19.33;5.57;;;14.30;99.90;;;15.08;100.00;99608.78;4987211;28;20038;-83
2023/07/25 05:24:49;;;;;;;15.15;5.32;;;14.50;99.90;;;15.24;100.00;99623.38;4987498;28;20038;-83
2023/07/25 05:27:15;;;;;;;13.20;4.72;;;14.70;99.90;;;15.30;100.00;99620.66;4992036;28;20100;-81
2023/07/25 05:29:41;;;;;;;11.75;4.43;;;14.70;99.90;;;15.21;100.00;99628.59;5003580;28;20027;-80
2023/07/25 05:32:07;;;;;;;9.77;4.75;;;14.80;99.90;;;15.31;100.00;99625.06;5003244;28;20050;-80
2023/07/25 05:34:33;;;;;;;13.95;4.60;;;14.90;99.90;;;14.90;100.00;99629.38;4986254;28;20486;-81
2023/07/25 05:36:58;;;;;;;15.07;4.60;;;14.80;99.90;;;15.03;100.00;99627.22;4990746;28;20034;-80
2023/07/25 05:39:24;;;;;;;10.80;4.30;;;14.70;99.90;;;14.94;100.00;99629.66;4991907;28;20044;-80
2023/07/25 05:41:51;;;;;;;13.18;4.30;;;14.60;99.90;;;14.93;100.00;99628.00;4997533;28;20038;-80
2023/07/25 05:44:16;;;;;;;10.93;4.70;;;14.50;99.90;;;14.70;100.00;99629.25;4983924;28;20038;-81
2023/07/25 05:46:42;;;;;;;13.70;4.95;;;14.30;99.90;;;14.76;100.00;99622.75;4991837;28;20057;-81
2023/07/25 05:49:08;;;;;;;9.15;4.68;;;14.30;99.90;;;14.87;100.00;99634.59;5003141;28;20038;-79
2023/07/25 05:51:34;;;;;;;8.95;5.32;;;14.30;99.90;;;14.80;100.00;99632.09;4991037;28;20096;-78
2023/07/25 05:53:59;;;;;;;14.50;4.97;;;14.30;99.90;;;14.92;100.00;99637.34;4990814;28;20034;-78
2023/07/25 05:56:25;;;;;;;12.52;5.05;;;14.40;99.90;;;15.04;100.00;99635.16;4990370;28;20479;-79
2023/07/25 05:58:51;;;;;;;11.63;5.50;;;14.50;99.90;;;15.04;100.00;99646.16;4994612;28;20127;-78
2023/07/25 06:01:16;;;;;;;9.85;4.85;;;14.60;99.90;;;14.91;100.00;99652.16;4990359;28;20143;-78
2023/07/25 06:03:42;;;;;;;14.93;5.03;;;14.60;99.90;;;14.68;100.00;99637.78;4988530;28;20046;-81
2023/07/25 06:06:08;;;;;;;14.45;4.85;;;14.60;99.90;;;14.93;100.00;99656.28;4987086;28;20034;-80
2023/07/25 06:08:34;;;;;;;12.77;4.60;;;14.60;99.90;;;14.94;100.00;99670.84;4983352;28;20475;-79
2023/07/25 06:11:00;;;;;;;11.80;5.38;;;14.60;99.90;;;15.03;100.00;99677.44;4990677;28;20054;-79
2023/07/25 06:13:25;;;;;;;11.00;4.88;;;14.60;99.90;;;15.02;100.00;99686.78;5006067;28;20531;-79
2023/07/25 06:15:51;;;;;;;14.52;4.53;;;14.60;99.90;;;15.13;100.00;99687.66;4981576;28;20066;-79
2023/07/25 06:18:17;;;;;;;13.18;4.35;;;14.70;99.90;;;15.12;100.00;99691.50;4986571;28;20046;-79
2023/07/25 06:20:46;;;;;;;13.25;4.82;;;14.70;99.90;;;15.23;100.00;99698.66;5003548;28;20043;-77
2023/07/25 06:23:12;;;;;;;11.93;4.40;;;14.80;99.90;;;15.37;100.00;99695.41;4990430;28;20435;-77
2023/07/25 06:25:39;;;;;;;12.60;4.72;;;14.90;99.90;;;15.44;100.00;99709.69;4993270;28;20078;-80
2023/07/25 06:28:05;;;;;;;12.05;4.43;;;15.00;99.90;;;15.41;100.00;99720.41;4994281;28;20039;-77
2023/07/25 06:30:32;;;;;;;11.20;4.57;;;15.00;99.90;;;15.52;100.00;99722.06;4985126;28;20483;-79
2023/07/25 06:32:57;;;;;;;10.55;4.05;;;15.00;99.90;;;15.82;100.00;99728.69;4990243;28;20441;-79
2023/07/25 06:35:26;;;;;;;15.20;4.30;;;15.20;99.90;;;15.99;100.00;99741.41;4987361;28;20050;-78
2023/07/25 06:37:52;;;;;;;13.18;4.38;;;15.40;99.90;;;16.18;100.00;99737.00;4989535;28;20031;-78
2023/07/25 06:40:18;;;;;;;12.20;3.95;;;15.60;99.90;;;16.47;100.00;99744.66;4986938;28;20351;-77
2023/07/25 06:42:45;;;;;;;10.90;3.30;;;15.90;99.90;;;16.65;100.00;99757.00;4987498;28;20087;-77
2023/07/25 06:45:12;;;;;;;10.52;3.92;;;16.20;99.90;;;16.67;100.00;99767.72;4988328;28;20042;-79
2023/07/25 06:47:39;;;;;;;7.90;2.97;;;16.30;99.90;;;16.64;100.00;99757.25;4999060;28;20376;-81
2023/07/25 06:50:05;;;;;;;11.75;3.78;;;16.30;99.90;;;16.94;100.00;99761.03;4989649;28;20085;-79
2023/07/25 06:52:32;;;;;;;11.82;3.25;;;;;;;17.32;100.00;99766.13;5002432;28;20039;-79
2023/07/25 06:54:58;;;;;;;8.15;2.97;;;;;;;17.44;100.00;99765.78;5010623;28;20038;-79
2023/07/25 06:57:24;;;;;;;10.20;2.97;;;16.50;99.90;;;17.35;100.00;99766.41;5013940;28;20046;-78
2023/07/25 06:59:51;;;;;;;10.50;2.90;;;17.20;99.90;;;17.45;100.00;99764.69;5006088;28;20098;-78
2023/07/25 07:02:17;;;;;;;8.55;2.85;;;;;;;17.82;100.00;99771.63;5011281;28;20023;-78
2023/07/25 07:04:43;;;;;;;12.02;3.08;;;17.30;99.90;;;18.06;100.00;99770.94;5010630;28;20090;-79
2023/07/25 07:07:08;;;;;;;5.70;2.50;;;17.70;99.90;;;18.11;100.00;99766.16;5004508;28;20049;-77
2023/07/25 07:09:34;;;;;;;9.73;2.90;;;17.70;99.90;;;17.89;100.00;99763.84;5007306;28;20050;-78
2023/07/25 07:12:00;;;;;;;12.20;2.90;;;17.60;99.90;;;18.19;100.00;99756.44;5006514;28;20046;-77
2023/07/25 07:14:26;;;;;;;11.50;2.67;;;17.70;99.90;;;18.25;100.00;99758.03;5008906;28;20046;-76
2023/07/25 07:16:51;;;;;;;12.05;2.97;;;17.90;99.90;;;17.95;100.00;99748.88;4996315;28;20422;-77
2023/07/25 07:19:17;;;;;;;9.05;2.75;;;17.80;99.90;;;18.24;100.00;99752.84;5011550;28;20050;-77
2023/07/25 07:21:43;;;;;;;7.40;2.30;;;18.00;99.90;;;17.67;100.00;99739.47;5008136;28;20047;-77
2023/07/25 07:24:09;;;;;;;9.63;2.70;;;17.80;99.90;;;18.44;100.00;99751.81;5007007;28;20039;-78
2023/07/25 07:26:34;;;;;;;9.27;2.63;;;18.10;99.90;;;18.59;100.00;99736.19;5022334;28;20038;-78
2023/07/25 07:29:00;;;;;;;9.48;2.60;;;18.30;99.90;;;18.79;100.00;99741.47;5000759;28;20038;-77
2023/07/25 07:31:26;;;;;;;11.35;2.50;;;18.40;99.90;;;19.08;100.00;99732.31;5003244;28;20050;-78
2023/07/25 07:33:52;;;;;;;7.40;1.85;;;18.60;99.90;;;19.39;100.00;99729.16;5016104;28;20042;-78
2023/07/25 07:36:19;;;;;;;9.57;2.53;;;19.00;99.90;;;19.57;100.00;99726.66;4996742;28;20493;-78
2023/07/25 07:38:45;;;;;;;10.02;2.83;;;19.30;99.90;;;18.75;100.00;99732.13;4989288;28;20499;-77
2023/07/25 07:41:12;;;;;;;5.35;2.22;;;19.00;99.90;;;18.06;100.00;99738.63;4986535;28;20108;-80
2023/07/25 07:43:37;;;;;;;9.70;2.27;;;18.50;99.90;;;17.78;100.00;99735.50;4984209;28;20050;-79
2023/07/25 07:46:03;;;;;;;9.10;2.33;;;18.10;99.90;;;17.82;100.00;99739.34;4988263;28;20723;-78
2023/07/25 07:48:29;;;;;;;8.80;2.20;;;18.10;99.90;;;17.94;100.00;99735.41;4996177;28;20114;-78
2023/07/25 07:50:55;;;;;;;10.38;2.42;;;18.20;99.90;;;18.01;100.00;99732.28;5006569;28;20058;-78
2023/07/25 07:53:20;;;;;;;8.90;2.28;;;18.30;99.90;;;17.33;100.00;99727.25;4985763;28;20089;-79
2023/07/25 07:55:46;;;;;;;6.40;1.90;;;18.10;99.90;;;17.32;100.00;99717.34;4962761;28;20093;-79
2023/07/25 07:58:12;;;;;;;6.47;2.17;;;18.00;99.90;;;17.04;100.00;99719.72;4983711;28;20030;-78
2023/07/25 08:00:37;;;;;;;6.35;2.17;;;17.70;99.90;;;17.03;100.00;99712.53;4979826;28;20038;-78
2023/07/25 08:03:03;;;;;;;7.28;2.60;;;17.60;99.90;;;17.56;100.00;99722.16;4999903;28;20045;-77
2023/07/25 08:05:29;;;;;;;6.18;2.22;;;17.70;99.90;;;18.13;100.00;99724.50;5001535;28;20042;-78
2023/07/25 08:08:15;;;;;;;8.55;2.20;;;18.10;99.90;;;18.66;100.00;99711.81;4992512;28;20038;-77
2023/07/25 08:10:41;;;;;;;7.55;2.10;;;18.70;99.90;;;18.73;100.00;99705.94;4984716;28;20116;-77
2023/07/25 08:13:06;;;;;;;5.55;1.67;;;19.00;99.90;;;17.58;100.00;99702.56;4984185;28;20042;-78
2023/07/25 08:15:32;;;;;;;6.57;2.38;;;18.50;99.90;;;17.86;100.00;99709.25;4990044;28;20045;-78
2023/07/25 08:17:58;;;;;;;6.47;2.00;;;18.40;99.90;;;17.62;100.00;99709.97;4989332;28;20038;-77
2023/07/25 08:20:23;;;;;;;8.73;2.58;;;18.10;99.90;;;17.39;100.00;99708.78;4989264;28;20409;-78
2023/07/25 08:22:49;;;;;;;6.90;1.83;;;18.00;99.90;;;17.00;100.00;99698.50;4989641;28;20038;-77
2023/07/25 08:25:15;;;;;;;6.20;2.00;;;17.70;99.90;;;17.18;100.00;99697.03;4988530;28;20046;-78
2023/07/25 08:27:40;;;;;;;5.97;1.60;;;17.50;99.90;;;17.34;100.00;99698.59;4983813;28;20189;-77
2023/07/25 08:30:07;;;;;;;6.05;1.75;;;17.80;99.90;;;17.65;100.00;99694.81;4988862;28;20038;-78
2023/07/25 08:32:33;;;;;;;8.90;1.90;;;18.00;99.90;;;18.10;100.00;99691.97;4988400;28;20482;-78
2023/07/25 08:34:58;;;;;;;7.40;1.70;;;18.30;99.90;;;18.48;100.00;99681.06;4989116;28;20034;-77
2023/07/25 08:37:25;;;;;;;7.20;1.98;;;18.60;99.90;;;18.08;100.00;99683.16;4986687;28;20049;-76
2023/07/25 08:39:50;;;;;;;6.95;1.75;;;18.70;99.90;;;17.86;100.00;99697.38;4987792;28;20307;-78
2023/07/25 08:42:19;;;;;;;12.35;2.00;;;18.60;99.90;;;17.68;100.00;99692.28;4992767;28;20132;-77
2023/07/25 08:44:51;;;;;;;6.95;2.00;;;18.40;99.90;;;17.63;100.00;99694.25;4987154;28;20092;-78
2023/07/25 08:47:26;;;;;;;7.43;1.80;;;18.20;99.90;;;17.35;100.00;99691.97;4992013;28;20080;-81
2023/07/25 08:49:55;;;;;;;11.02;2.70;;;18.10;99.90;;;17.24;100.00;99693.97;4990474;28;20026;-80
2023/07/25 08:52:26;;;;;;;9.38;1.88;;;17.80;99.90;;;17.90;100.00;99709.47;4983567;28;20030;-83
2023/07/25 08:54:52;;;;;;;6.40;1.75;;;18.10;99.90;;;18.26;100.00;99687.91;4982880;28;20074;-83
2023/07/25 08:57:21;;;;;;;7.63;2.08;;;18.60;99.90;;;19.11;100.00;99700.50;4986980;28;20273;-85
2023/07/25 08:59:48;;;;;;;5.85;1.60;;;19.10;99.90;;;19.46;100.00;99697.53;4980104;28;20495;-82
2023/07/25 09:02:16;;;;;;;7.82;2.35;;;19.70;99.90;;;18.81;100.00;99699.75;4992455;28;20113;-84
2023/07/25 09:04:45;;;;;;;4.15;1.42;;;19.90;99.90;;;18.42;100.00;99693.28;4990765;28;20034;-78
2023/07/25 09:07:11;;;;;;;6.20;1.88;;;19.40;99.90;;;18.53;100.00;99694.81;4990403;28;20058;-82
2023/07/25 09:09:37;;;;;;;5.38;1.58;;;19.40;99.90;;;18.43;100.00;99696.84;4992395;28;20446;-88
2023/07/25 09:12:03;;;;;;;5.80;1.48;;;19.30;99.90;;;18.39;100.00;99696.63;4987298;28;20428;-84
2023/07/25 09:14:29;;;;;;;7.38;1.88;;;19.10;99.90;;;17.95;100.00;99707.50;4990884;28;20026;-83
2023/07/25 09:16:55;;;;;;;5.20;1.45;;;18.90;99.90;;;18.04;100.00;99704.97;4992418;28;20042;-81
2023/07/25 09:19:21;;;;;;;5.68;1.52;;;18.70;99.90;;;18.52;100.00;99703.41;4993228;28;20047;-82
2023/07/25 09:21:57;;;;;;;7.32;1.92;;;19.00;99.90;;;18.77;100.00;99705.03;4984670;28;20074;-81
2023/07/25 09:24:23;;;;;;;6.28;1.70;;;19.40;99.90;;;18.58;100.00;99695.91;4986965;28;20117;-81
2023/07/25 09:26:51;;;;;;;5.38;1.58;;;19.40;98.00;;;18.80;100.00;99698.91;4980868;28;20117;-83
2023/07/25 09:29:18;;;;;;;4.97;1.42;;;19.40;99.60;;;19.43;98.00;99698.13;4984815;28;20549;-83
2023/07/25 09:31:46;;;;;;;5.78;1.25;;;19.80;98.90;;;19.77;93.12;99699.81;4994426;28;20065;-82
2023/07/25 09:34:23;;;;;;;4.78;1.67;;;20.10;98.30;;;20.18;95.40;99712.97;4997129;28;20109;-84
2023/07/25 09:36:48;;;;;;;6.30;1.77;;;20.50;98.60;;;19.63;96.52;99694.22;4985832;28;20038;-86
2023/07/25 09:39:16;;;;;;;7.28;1.98;;;20.30;97.70;;;20.32;94.86;99696.41;4986101;28;20035;-87
2023/07/25 09:41:43;;;;;;;9.13;1.50;;;20.60;97.70;;;20.09;87.04;99703.72;4979843;28;20103;-84
2023/07/25 09:44:09;;;;;;;6.30;1.47;;;20.70;94.70;;;19.97;78.85;99696.72;4993657;28;20442;-84
2023/07/25 09:46:35;;;;;;;4.63;1.20;;;20.60;92.40;;;20.12;81.12;99695.63;4982483;28;20404;-87
2023/07/25 09:49:01;;;;;;;5.13;1.50;;;20.70;93.30;;;20.39;77.94;99705.09;4987685;28;20113;-81
2023/07/25 09:51:26;;;;;;;3.38;1.35;;;20.80;92.50;;;20.67;72.72;99691.28;4990725;28;20478;-86
2023/07/25 09:53:54;;;;;;;7.47;1.80;;;21.00;91.70;;;19.86;77.30;99700.75;4992287;28;20057;-87
2023/07/25 09:56:25;;;;;;;6.13;1.27;;;20.70;91.50;;;20.58;84.85;99708.91;4991246;28;20104;-84
2023/07/25 09:58:53;;;;;;;7.55;1.40;;;20.90;94.00;;;21.22;83.15;99699.88;4980647;28;20046;-83
2023/07/25 10:01:19;;;;;;;2.83;1.20;;;21.20;94.40;;;21.55;72.17;99694.13;4984515;28;20052;-86
2023/07/25 10:03:46;;;;;;;5.57;1.50;;;21.60;91.70;;;21.84;66.38;99693.69;4990212;28;20473;-83
2023/07/25 10:06:16;;;;;;;5.07;1.20;;;22.00;90.10;;;21.36;66.88;99683.19;5006136;28;20042;-83